sensor_id;sensor_type;location;lat;lon;timestamp;P1;durP1;ratioP1;P2;durP2;ratioP2
40152;SDS011;26371;56.992;23.912;2022-10-16T00:01:42;22.48;;;15.45;;
40152;SDS011;26371;56.992;23.912;2022-10-16T00:04:11;20.58;;;14.35;;
40152;SDS011;26371;56.992;23.912;2022-10-16T00:06:40;23.75;;;14.35;;
40152;SDS011;26371;56.992;23.912;2022-10-16T00:09:08;23.98;;;16.25;;
40152;SDS011;26371;56.992;23.912;2022-10-16T00:11:38;20.98;;;15.20;;
40152;SDS011;26371;56.992;23.912;2022-10-16T00:14:10;25.27;;;16.23;;
40152;SDS011;26371;56.992;23.912;2022-10-16T00:16:40;24.65;;;15.48;;
40152;SDS011;26371;56.992;23.912;2022-10-16T00:19:09;25.58;;;15.63;;
40152;SDS011;26371;56.992;23.912;2022-10-16T00:21:39;24.60;;;15.63;;
40152;SDS011;26371;56.992;23.912;2022-10-16T00:24:12;26.98;;;15.32;;
40152;SDS011;26371;56.992;23.912;2022-10-16T00:26:45;24.10;;;16.35;;
40152;SDS011;26371;56.992;23.912;2022-10-16T00:29:24;24.67;;;15.27;;
40152;SDS011;26371;56.992;23.912;2022-10-16T00:32:00;24.45;;;15.93;;
40152;SDS011;26371;56.992;23.912;2022-10-16T00:34:29;22.57;;;15.17;;
40152;SDS011;26371;56.992;23.912;2022-10-16T00:36:57;24.95;;;16.25;;
40152;SDS011;26371;56.992;23.912;2022-10-16T00:39:26;21.67;;;14.97;;
40152;SDS011;26371;56.992;23.912;2022-10-16T00:41:55;30.93;;;15.60;;
40152;SDS011;26371;56.992;23.912;2022-10-16T00:44:45;29.03;;;16.97;;
40152;SDS011;26371;56.992;23.912;2022-10-16T00:47:18;24.23;;;16.35;;
40152;SDS011;26371;56.992;23.912;2022-10-16T00:49:51;26.20;;;16.20;;
40152;SDS011;26371;56.992;23.912;2022-10-16T00:52:24;23.65;;;17.25;;
40152;SDS011;26371;56.992;23.912;2022-10-16T00:54:53;23.98;;;16.42;;
40152;SDS011;26371;56.992;23.912;2022-10-16T00:57:23;24.05;;;16.50;;
40152;SDS011;26371;56.992;23.912;2022-10-16T01:02:23;25.65;;;16.70;;
40152;SDS011;26371;56.992;23.912;2022-10-16T01:04:52;26.83;;;18.02;;
40152;SDS011;26371;56.992;23.912;2022-10-16T01:07:26;28.17;;;17.80;;
40152;SDS011;26371;56.992;23.912;2022-10-16T01:10:07;25.45;;;17.20;;
40152;SDS011;26371;56.992;23.912;2022-10-16T01:12:45;21.95;;;16.38;;
40152;SDS011;26371;56.992;23.912;2022-10-16T01:15:20;24.48;;;17.08;;
40152;SDS011;26371;56.992;23.912;2022-10-16T01:17:56;26.95;;;16.85;;
40152;SDS011;26371;56.992;23.912;2022-10-16T01:20:29;24.67;;;16.80;;
40152;SDS011;26371;56.992;23.912;2022-10-16T01:23:12;24.80;;;16.05;;
40152;SDS011;26371;56.992;23.912;2022-10-16T01:25:52;27.50;;;16.85;;
40152;SDS011;26371;56.992;23.912;2022-10-16T01:28:34;28.25;;;15.98;;
40152;SDS011;26371;56.992;23.912;2022-10-16T01:31:07;23.83;;;15.98;;
40152;SDS011;26371;56.992;23.912;2022-10-16T01:33:39;30.38;;;17.30;;
40152;SDS011;26371;56.992;23.912;2022-10-16T01:36:12;24.15;;;15.48;;
40152;SDS011;26371;56.992;23.912;2022-10-16T01:38:43;27.77;;;16.80;;
40152;SDS011;26371;56.992;23.912;2022-10-16T01:41:17;25.15;;;16.33;;
40152;SDS011;26371;56.992;23.912;2022-10-16T01:43:51;24.35;;;15.88;;
40152;SDS011;26371;56.992;23.912;2022-10-16T01:46:25;28.70;;;18.35;;
40152;SDS011;26371;56.992;23.912;2022-10-16T01:48:55;25.23;;;17.35;;
40152;SDS011;26371;56.992;23.912;2022-10-16T01:51:24;24.08;;;16.25;;
40152;SDS011;26371;56.992;23.912;2022-10-16T01:53:54;25.30;;;16.92;;
40152;SDS011;26371;56.992;23.912;2022-10-16T01:56:26;30.48;;;19.00;;
40152;SDS011;26371;56.992;23.912;2022-10-16T01:59:00;22.60;;;16.15;;
40152;SDS011;26371;56.992;23.912;2022-10-16T02:01:34;28.30;;;17.38;;
40152;SDS011;26371;56.992;23.912;2022-10-16T02:04:10;26.08;;;15.70;;
40152;SDS011;26371;56.992;23.912;2022-10-16T02:06:42;25.48;;;16.88;;
40152;SDS011;26371;56.992;23.912;2022-10-16T02:09:11;28.02;;;17.58;;
40152;SDS011;26371;56.992;23.912;2022-10-16T02:11:42;24.88;;;17.08;;
40152;SDS011;26371;56.992;23.912;2022-10-16T02:14:12;30.42;;;17.80;;
40152;SDS011;26371;56.992;23.912;2022-10-16T02:16:42;27.48;;;18.00;;
40152;SDS011;26371;56.992;23.912;2022-10-16T02:19:13;28.30;;;19.75;;
40152;SDS011;26371;56.992;23.912;2022-10-16T02:21:43;30.77;;;18.45;;
40152;SDS011;26371;56.992;23.912;2022-10-16T02:24:18;26.20;;;17.90;;
40152;SDS011;26371;56.992;23.912;2022-10-16T02:26:55;28.38;;;19.48;;
40152;SDS011;26371;56.992;23.912;2022-10-16T02:29:30;32.13;;;19.17;;
40152;SDS011;26371;56.992;23.912;2022-10-16T02:32:05;28.70;;;19.20;;
40152;SDS011;26371;56.992;23.912;2022-10-16T02:34:36;31.90;;;21.05;;
40152;SDS011;26371;56.992;23.912;2022-10-16T02:37:07;30.75;;;19.45;;
40152;SDS011;26371;56.992;23.912;2022-10-16T02:39:37;32.08;;;19.50;;
40152;SDS011;26371;56.992;23.912;2022-10-16T02:42:09;31.83;;;19.55;;
40152;SDS011;26371;56.992;23.912;2022-10-16T02:44:40;29.90;;;19.80;;
40152;SDS011;26371;56.992;23.912;2022-10-16T02:47:09;28.27;;;18.17;;
40152;SDS011;26371;56.992;23.912;2022-10-16T02:49:39;31.40;;;19.02;;
40152;SDS011;26371;56.992;23.912;2022-10-16T02:52:07;32.40;;;20.13;;
40152;SDS011;26371;56.992;23.912;2022-10-16T02:54:36;27.83;;;19.52;;
40152;SDS011;26371;56.992;23.912;2022-10-16T02:57:05;30.60;;;19.47;;
40152;SDS011;26371;56.992;23.912;2022-10-16T02:59:33;31.63;;;20.45;;
40152;SDS011;26371;56.992;23.912;2022-10-16T03:02:03;30.80;;;19.87;;
40152;SDS011;26371;56.992;23.912;2022-10-16T03:04:32;31.08;;;19.77;;
40152;SDS011;26371;56.992;23.912;2022-10-16T03:07:01;33.20;;;21.60;;
40152;SDS011;26371;56.992;23.912;2022-10-16T03:09:30;36.17;;;20.58;;
40152;SDS011;26371;56.992;23.912;2022-10-16T03:11:58;33.40;;;21.65;;
40152;SDS011;26371;56.992;23.912;2022-10-16T03:14:27;34.90;;;21.05;;
40152;SDS011;26371;56.992;23.912;2022-10-16T03:16:56;32.90;;;21.73;;
40152;SDS011;26371;56.992;23.912;2022-10-16T03:19:26;36.28;;;22.13;;
40152;SDS011;26371;56.992;23.912;2022-10-16T03:21:55;38.47;;;22.88;;
40152;SDS011;26371;56.992;23.912;2022-10-16T03:24:24;33.28;;;21.90;;
40152;SDS011;26371;56.992;23.912;2022-10-16T03:26:52;36.05;;;21.75;;
40152;SDS011;26371;56.992;23.912;2022-10-16T03:29:21;36.30;;;22.50;;
40152;SDS011;26371;56.992;23.912;2022-10-16T03:31:50;31.73;;;20.52;;
40152;SDS011;26371;56.992;23.912;2022-10-16T03:34:18;35.40;;;22.15;;
40152;SDS011;26371;56.992;23.912;2022-10-16T03:36:48;29.05;;;20.05;;
40152;SDS011;26371;56.992;23.912;2022-10-16T03:39:18;33.30;;;21.27;;
40152;SDS011;26371;56.992;23.912;2022-10-16T03:41:47;32.97;;;21.85;;
40152;SDS011;26371;56.992;23.912;2022-10-16T03:44:16;34.53;;;21.53;;
40152;SDS011;26371;56.992;23.912;2022-10-16T03:46:45;31.83;;;20.70;;
40152;SDS011;26371;56.992;23.912;2022-10-16T03:49:13;35.87;;;21.50;;
40152;SDS011;26371;56.992;23.912;2022-10-16T03:51:42;33.78;;;21.73;;
40152;SDS011;26371;56.992;23.912;2022-10-16T03:54:12;32.22;;;22.08;;
40152;SDS011;26371;56.992;23.912;2022-10-16T03:56:41;32.05;;;20.70;;
40152;SDS011;26371;56.992;23.912;2022-10-16T03:59:09;32.38;;;19.70;;
40152;SDS011;26371;56.992;23.912;2022-10-16T04:01:38;34.15;;;20.58;;
40152;SDS011;26371;56.992;23.912;2022-10-16T04:04:07;33.78;;;21.33;;
40152;SDS011;26371;56.992;23.912;2022-10-16T04:06:35;31.27;;;20.63;;
40152;SDS011;26371;56.992;23.912;2022-10-16T04:09:04;33.63;;;21.02;;
40152;SDS011;26371;56.992;23.912;2022-10-16T04:11:34;34.65;;;20.98;;
40152;SDS011;26371;56.992;23.912;2022-10-16T04:14:03;35.10;;;21.33;;
40152;SDS011;26371;56.992;23.912;2022-10-16T04:16:31;35.30;;;22.38;;
40152;SDS011;26371;56.992;23.912;2022-10-16T04:19:00;37.92;;;23.23;;
40152;SDS011;26371;56.992;23.912;2022-10-16T04:21:29;36.05;;;22.17;;
40152;SDS011;26371;56.992;23.912;2022-10-16T04:23:58;36.20;;;22.58;;
40152;SDS011;26371;56.992;23.912;2022-10-16T04:26:29;35.10;;;21.85;;
40152;SDS011;26371;56.992;23.912;2022-10-16T04:32:56;37.67;;;21.27;;
40152;SDS011;26371;56.992;23.912;2022-10-16T04:35:30;38.10;;;21.77;;
40152;SDS011;26371;56.992;23.912;2022-10-16T04:37:58;40.50;;;22.27;;
40152;SDS011;26371;56.992;23.912;2022-10-16T04:40:27;37.65;;;21.67;;
40152;SDS011;26371;56.992;23.912;2022-10-16T04:42:59;37.40;;;21.85;;
40152;SDS011;26371;56.992;23.912;2022-10-16T04:45:29;34.75;;;20.48;;
40152;SDS011;26371;56.992;23.912;2022-10-16T04:47:58;36.65;;;21.42;;
40152;SDS011;26371;56.992;23.912;2022-10-16T04:50:27;35.22;;;20.90;;
40152;SDS011;26371;56.992;23.912;2022-10-16T04:53:05;36.35;;;21.30;;
40152;SDS011;26371;56.992;23.912;2022-10-16T04:55:34;31.08;;;19.20;;
40152;SDS011;26371;56.992;23.912;2022-10-16T04:58:04;34.03;;;20.08;;
40152;SDS011;26371;56.992;23.912;2022-10-16T05:00:34;34.58;;;19.30;;
40152;SDS011;26371;56.992;23.912;2022-10-16T05:03:04;32.92;;;20.92;;
40152;SDS011;26371;56.992;23.912;2022-10-16T05:05:35;35.00;;;20.92;;
40152;SDS011;26371;56.992;23.912;2022-10-16T05:08:04;33.55;;;21.77;;
40152;SDS011;26371;56.992;23.912;2022-10-16T05:10:33;34.85;;;20.48;;
40152;SDS011;26371;56.992;23.912;2022-10-16T05:13:01;30.42;;;20.33;;
40152;SDS011;26371;56.992;23.912;2022-10-16T05:15:30;33.30;;;20.40;;
40152;SDS011;26371;56.992;23.912;2022-10-16T05:18:00;33.22;;;20.63;;
40152;SDS011;26371;56.992;23.912;2022-10-16T05:20:29;32.63;;;20.08;;
40152;SDS011;26371;56.992;23.912;2022-10-16T05:22:58;31.73;;;19.75;;
40152;SDS011;26371;56.992;23.912;2022-10-16T05:25:26;37.03;;;21.75;;
40152;SDS011;26371;56.992;23.912;2022-10-16T05:27:55;32.47;;;20.90;;
40152;SDS011;26371;56.992;23.912;2022-10-16T05:30:24;33.90;;;20.73;;
40152;SDS011;26371;56.992;23.912;2022-10-16T05:32:53;33.10;;;20.70;;
40152;SDS011;26371;56.992;23.912;2022-10-16T05:35:23;34.95;;;21.75;;
40152;SDS011;26371;56.992;23.912;2022-10-16T05:37:52;37.50;;;21.83;;
40152;SDS011;26371;56.992;23.912;2022-10-16T05:40:20;36.38;;;22.38;;
40152;SDS011;26371;56.992;23.912;2022-10-16T05:42:49;38.53;;;22.17;;
40152;SDS011;26371;56.992;23.912;2022-10-16T05:45:22;41.05;;;24.08;;
40152;SDS011;26371;56.992;23.912;2022-10-16T05:47:50;43.40;;;24.02;;
40152;SDS011;26371;56.992;23.912;2022-10-16T05:50:19;38.17;;;22.57;;
40152;SDS011;26371;56.992;23.912;2022-10-16T05:52:49;47.35;;;24.92;;
40152;SDS011;26371;56.992;23.912;2022-10-16T05:55:18;38.22;;;23.55;;
40152;SDS011;26371;56.992;23.912;2022-10-16T05:57:46;37.90;;;23.58;;
40152;SDS011;26371;56.992;23.912;2022-10-16T06:00:15;44.38;;;24.88;;
40152;SDS011;26371;56.992;23.912;2022-10-16T06:02:44;45.20;;;23.85;;
40152;SDS011;26371;56.992;23.912;2022-10-16T06:05:13;43.22;;;24.30;;
40152;SDS011;26371;56.992;23.912;2022-10-16T06:07:41;37.67;;;24.00;;
40152;SDS011;26371;56.992;23.912;2022-10-16T06:10:12;42.95;;;24.55;;
40152;SDS011;26371;56.992;23.912;2022-10-16T06:12:41;39.78;;;23.75;;
40152;SDS011;26371;56.992;23.912;2022-10-16T06:15:10;43.00;;;25.60;;
40152;SDS011;26371;56.992;23.912;2022-10-16T06:17:38;41.42;;;23.58;;
40152;SDS011;26371;56.992;23.912;2022-10-16T06:20:07;40.20;;;24.40;;
40152;SDS011;26371;56.992;23.912;2022-10-16T06:25:05;39.17;;;24.48;;
40152;SDS011;26371;56.992;23.912;2022-10-16T06:27:35;40.42;;;23.80;;
40152;SDS011;26371;56.992;23.912;2022-10-16T06:30:07;42.10;;;25.75;;
40152;SDS011;26371;56.992;23.912;2022-10-16T06:32:37;44.72;;;26.70;;
40152;SDS011;26371;56.992;23.912;2022-10-16T06:35:08;44.92;;;25.95;;
40152;SDS011;26371;56.992;23.912;2022-10-16T06:37:37;46.55;;;26.73;;
40152;SDS011;26371;56.992;23.912;2022-10-16T06:40:06;44.70;;;26.58;;
40152;SDS011;26371;56.992;23.912;2022-10-16T06:45:05;37.42;;;23.75;;
40152;SDS011;26371;56.992;23.912;2022-10-16T06:47:34;41.30;;;24.77;;
40152;SDS011;26371;56.992;23.912;2022-10-16T06:50:03;40.60;;;25.45;;
40152;SDS011;26371;56.992;23.912;2022-10-16T06:52:34;43.85;;;27.30;;
40152;SDS011;26371;56.992;23.912;2022-10-16T06:55:03;48.33;;;30.25;;
40152;SDS011;26371;56.992;23.912;2022-10-16T06:57:32;43.17;;;28.20;;
40152;SDS011;26371;56.992;23.912;2022-10-16T07:00:03;47.05;;;28.63;;
40152;SDS011;26371;56.992;23.912;2022-10-16T07:02:32;42.03;;;27.52;;
40152;SDS011;26371;56.992;23.912;2022-10-16T07:05:01;46.72;;;29.92;;
40152;SDS011;26371;56.992;23.912;2022-10-16T07:07:30;44.58;;;29.02;;
40152;SDS011;26371;56.992;23.912;2022-10-16T07:09:59;50.80;;;30.33;;
40152;SDS011;26371;56.992;23.912;2022-10-16T07:12:27;49.35;;;29.67;;
40152;SDS011;26371;56.992;23.912;2022-10-16T07:14:58;48.05;;;30.35;;
40152;SDS011;26371;56.992;23.912;2022-10-16T07:17:28;46.35;;;28.73;;
40152;SDS011;26371;56.992;23.912;2022-10-16T07:19:59;53.33;;;30.38;;
40152;SDS011;26371;56.992;23.912;2022-10-16T07:22:28;50.90;;;30.83;;
40152;SDS011;26371;56.992;23.912;2022-10-16T07:27:26;55.20;;;30.57;;
40152;SDS011;26371;56.992;23.912;2022-10-16T07:29:55;45.97;;;28.52;;
40152;SDS011;26371;56.992;23.912;2022-10-16T07:32:24;52.55;;;31.27;;
40152;SDS011;26371;56.992;23.912;2022-10-16T07:37:23;52.35;;;30.00;;
40152;SDS011;26371;56.992;23.912;2022-10-16T07:39:52;54.53;;;33.30;;
40152;SDS011;26371;56.992;23.912;2022-10-16T07:42:21;56.80;;;33.05;;
40152;SDS011;26371;56.992;23.912;2022-10-16T07:44:50;57.22;;;31.85;;
40152;SDS011;26371;56.992;23.912;2022-10-16T07:47:19;55.30;;;32.97;;
40152;SDS011;26371;56.992;23.912;2022-10-16T07:49:47;52.75;;;31.60;;
40152;SDS011;26371;56.992;23.912;2022-10-16T07:52:17;53.17;;;31.20;;
40152;SDS011;26371;56.992;23.912;2022-10-16T07:54:46;53.10;;;31.92;;
40152;SDS011;26371;56.992;23.912;2022-10-16T07:57:15;50.72;;;31.35;;
40152;SDS011;26371;56.992;23.912;2022-10-16T07:59:46;57.03;;;31.75;;
40152;SDS011;26371;56.992;23.912;2022-10-16T08:02:14;50.87;;;31.83;;
40152;SDS011;26371;56.992;23.912;2022-10-16T08:04:43;56.28;;;32.70;;
40152;SDS011;26371;56.992;23.912;2022-10-16T08:07:14;58.97;;;34.60;;
40152;SDS011;26371;56.992;23.912;2022-10-16T08:09:44;53.92;;;31.10;;
40152;SDS011;26371;56.992;23.912;2022-10-16T08:12:16;51.20;;;31.17;;
40152;SDS011;26371;56.992;23.912;2022-10-16T08:14:45;51.15;;;30.80;;
40152;SDS011;26371;56.992;23.912;2022-10-16T08:17:14;54.58;;;33.40;;
40152;SDS011;26371;56.992;23.912;2022-10-16T08:19:44;50.20;;;31.42;;
40152;SDS011;26371;56.992;23.912;2022-10-16T08:22:13;48.95;;;29.85;;
40152;SDS011;26371;56.992;23.912;2022-10-16T08:24:43;52.60;;;31.45;;
40152;SDS011;26371;56.992;23.912;2022-10-16T08:27:12;48.53;;;30.92;;
40152;SDS011;26371;56.992;23.912;2022-10-16T08:29:41;53.38;;;33.03;;
40152;SDS011;26371;56.992;23.912;2022-10-16T08:32:09;49.92;;;31.33;;
40152;SDS011;26371;56.992;23.912;2022-10-16T08:34:38;55.88;;;34.50;;
40152;SDS011;26371;56.992;23.912;2022-10-16T08:37:07;51.60;;;33.58;;
40152;SDS011;26371;56.992;23.912;2022-10-16T08:39:37;49.55;;;30.98;;
40152;SDS011;26371;56.992;23.912;2022-10-16T08:42:19;49.95;;;32.83;;
40152;SDS011;26371;56.992;23.912;2022-10-16T08:48:00;48.70;;;30.55;;
40152;SDS011;26371;56.992;23.912;2022-10-16T08:50:43;56.53;;;33.90;;
40152;SDS011;26371;56.992;23.912;2022-10-16T08:53:14;53.22;;;32.88;;
40152;SDS011;26371;56.992;23.912;2022-10-16T08:55:46;50.47;;;32.83;;
40152;SDS011;26371;56.992;23.912;2022-10-16T08:58:20;54.13;;;33.92;;
40152;SDS011;26371;56.992;23.912;2022-10-16T09:00:51;53.72;;;32.38;;
40152;SDS011;26371;56.992;23.912;2022-10-16T09:03:32;55.20;;;33.35;;
40152;SDS011;26371;56.992;23.912;2022-10-16T09:06:21;52.00;;;31.10;;
40152;SDS011;26371;56.992;23.912;2022-10-16T09:09:05;51.00;;;32.17;;
40152;SDS011;26371;56.992;23.912;2022-10-16T09:11:41;50.53;;;32.35;;
40152;SDS011;26371;56.992;23.912;2022-10-16T09:14:28;48.88;;;31.95;;
40152;SDS011;26371;56.992;23.912;2022-10-16T09:17:11;51.92;;;33.28;;
40152;SDS011;26371;56.992;23.912;2022-10-16T09:19:50;53.17;;;34.10;;
40152;SDS011;26371;56.992;23.912;2022-10-16T09:22:24;51.60;;;32.17;;
40152;SDS011;26371;56.992;23.912;2022-10-16T09:24:57;51.10;;;33.53;;
40152;SDS011;26371;56.992;23.912;2022-10-16T09:27:29;51.75;;;32.75;;
40152;SDS011;26371;56.992;23.912;2022-10-16T09:32:28;56.25;;;32.95;;
40152;SDS011;26371;56.992;23.912;2022-10-16T09:35:00;52.70;;;34.20;;
40152;SDS011;26371;56.992;23.912;2022-10-16T09:37:29;56.50;;;31.83;;
40152;SDS011;26371;56.992;23.912;2022-10-16T09:42:34;52.95;;;33.03;;
40152;SDS011;26371;56.992;23.912;2022-10-16T09:45:19;55.10;;;35.20;;
40152;SDS011;26371;56.992;23.912;2022-10-16T09:47:50;61.20;;;33.80;;
40152;SDS011;26371;56.992;23.912;2022-10-16T09:50:23;54.88;;;33.70;;
40152;SDS011;26371;56.992;23.912;2022-10-16T09:55:50;51.17;;;33.15;;
40152;SDS011;26371;56.992;23.912;2022-10-16T09:58:21;56.20;;;33.38;;
40152;SDS011;26371;56.992;23.912;2022-10-16T10:00:53;58.42;;;34.72;;
40152;SDS011;26371;56.992;23.912;2022-10-16T10:03:30;54.75;;;33.95;;
40152;SDS011;26371;56.992;23.912;2022-10-16T10:06:04;57.13;;;34.90;;
40152;SDS011;26371;56.992;23.912;2022-10-16T10:08:34;54.33;;;33.40;;
40152;SDS011;26371;56.992;23.912;2022-10-16T10:11:03;56.20;;;34.70;;
40152;SDS011;26371;56.992;23.912;2022-10-16T10:16:02;51.23;;;33.07;;
40152;SDS011;26371;56.992;23.912;2022-10-16T10:18:31;51.85;;;32.50;;
40152;SDS011;26371;56.992;23.912;2022-10-16T10:21:01;52.40;;;32.65;;
40152;SDS011;26371;56.992;23.912;2022-10-16T10:23:32;49.28;;;31.20;;
40152;SDS011;26371;56.992;23.912;2022-10-16T10:26:02;47.85;;;31.45;;
40152;SDS011;26371;56.992;23.912;2022-10-16T10:28:46;53.33;;;33.88;;
40152;SDS011;26371;56.992;23.912;2022-10-16T10:31:23;49.72;;;31.70;;
40152;SDS011;26371;56.992;23.912;2022-10-16T10:33:56;51.50;;;31.58;;
40152;SDS011;26371;56.992;23.912;2022-10-16T10:36:30;48.65;;;31.00;;
40152;SDS011;26371;56.992;23.912;2022-10-16T10:39:02;54.63;;;31.92;;
40152;SDS011;26371;56.992;23.912;2022-10-16T10:41:37;45.67;;;30.38;;
40152;SDS011;26371;56.992;23.912;2022-10-16T10:44:24;50.50;;;31.33;;
40152;SDS011;26371;56.992;23.912;2022-10-16T10:47:05;49.60;;;30.67;;
40152;SDS011;26371;56.992;23.912;2022-10-16T10:49:45;47.78;;;30.08;;
40152;SDS011;26371;56.992;23.912;2022-10-16T10:52:30;46.85;;;29.55;;
40152;SDS011;26371;56.992;23.912;2022-10-16T10:55:11;51.10;;;31.73;;
40152;SDS011;26371;56.992;23.912;2022-10-16T10:57:53;48.33;;;30.38;;
40152;SDS011;26371;56.992;23.912;2022-10-16T11:00:37;46.05;;;30.88;;
40152;SDS011;26371;56.992;23.912;2022-10-16T11:03:24;44.67;;;29.92;;
40152;SDS011;26371;56.992;23.912;2022-10-16T11:06:11;45.10;;;28.92;;
40152;SDS011;26371;56.992;23.912;2022-10-16T11:08:45;45.88;;;29.50;;
40152;SDS011;26371;56.992;23.912;2022-10-16T11:11:20;41.83;;;27.35;;
40152;SDS011;26371;56.992;23.912;2022-10-16T11:13:54;41.65;;;27.88;;
40152;SDS011;26371;56.992;23.912;2022-10-16T11:16:27;43.30;;;27.55;;
40152;SDS011;26371;56.992;23.912;2022-10-16T11:19:02;41.40;;;27.65;;
40152;SDS011;26371;56.992;23.912;2022-10-16T11:21:39;40.17;;;26.95;;
40152;SDS011;26371;56.992;23.912;2022-10-16T11:24:17;43.20;;;28.08;;
40152;SDS011;26371;56.992;23.912;2022-10-16T11:26:50;42.03;;;27.30;;
40152;SDS011;26371;56.992;23.912;2022-10-16T11:29:23;40.75;;;25.70;;
40152;SDS011;26371;56.992;23.912;2022-10-16T11:31:56;37.90;;;25.60;;
40152;SDS011;26371;56.992;23.912;2022-10-16T11:34:32;38.60;;;26.48;;
40152;SDS011;26371;56.992;23.912;2022-10-16T11:37:08;36.70;;;24.75;;
40152;SDS011;26371;56.992;23.912;2022-10-16T11:39:40;41.45;;;26.02;;
40152;SDS011;26371;56.992;23.912;2022-10-16T11:42:10;38.95;;;25.45;;
40152;SDS011;26371;56.992;23.912;2022-10-16T11:44:47;37.20;;;24.02;;
40152;SDS011;26371;56.992;23.912;2022-10-16T11:47:26;33.45;;;23.55;;
40152;SDS011;26371;56.992;23.912;2022-10-16T11:50:24;37.60;;;25.02;;
40152;SDS011;26371;56.992;23.912;2022-10-16T11:52:57;37.47;;;24.05;;
40152;SDS011;26371;56.992;23.912;2022-10-16T11:55:33;36.17;;;24.50;;
40152;SDS011;26371;56.992;23.912;2022-10-16T11:58:13;35.22;;;23.75;;
40152;SDS011;26371;56.992;23.912;2022-10-16T12:00:53;35.58;;;24.08;;
40152;SDS011;26371;56.992;23.912;2022-10-16T12:03:28;35.92;;;24.67;;
40152;SDS011;26371;56.992;23.912;2022-10-16T12:06:06;39.75;;;24.13;;
40152;SDS011;26371;56.992;23.912;2022-10-16T12:08:44;35.97;;;24.88;;
40152;SDS011;26371;56.992;23.912;2022-10-16T12:11:23;36.28;;;24.50;;
40152;SDS011;26371;56.992;23.912;2022-10-16T12:14:06;37.75;;;24.55;;
40152;SDS011;26371;56.992;23.912;2022-10-16T12:16:51;37.45;;;24.30;;
40152;SDS011;26371;56.992;23.912;2022-10-16T12:19:22;39.55;;;25.45;;
40152;SDS011;26371;56.992;23.912;2022-10-16T12:21:54;37.00;;;25.23;;
40152;SDS011;26371;56.992;23.912;2022-10-16T12:24:31;36.58;;;24.25;;
40152;SDS011;26371;56.992;23.912;2022-10-16T12:27:03;38.60;;;23.75;;
40152;SDS011;26371;56.992;23.912;2022-10-16T12:29:37;35.28;;;23.35;;
40152;SDS011;26371;56.992;23.912;2022-10-16T12:32:19;34.83;;;23.35;;
40152;SDS011;26371;56.992;23.912;2022-10-16T12:35:17;34.47;;;23.23;;
40152;SDS011;26371;56.992;23.912;2022-10-16T12:37:51;38.50;;;24.42;;
40152;SDS011;26371;56.992;23.912;2022-10-16T12:40:29;35.45;;;24.08;;
40152;SDS011;26371;56.992;23.912;2022-10-16T12:43:10;33.22;;;23.13;;
40152;SDS011;26371;56.992;23.912;2022-10-16T12:45:40;37.20;;;23.70;;
40152;SDS011;26371;56.992;23.912;2022-10-16T12:48:18;35.08;;;23.42;;
40152;SDS011;26371;56.992;23.912;2022-10-16T12:51:09;33.20;;;23.05;;
40152;SDS011;26371;56.992;23.912;2022-10-16T12:53:40;35.15;;;23.70;;
40152;SDS011;26371;56.992;23.912;2022-10-16T12:56:10;33.85;;;22.85;;
40152;SDS011;26371;56.992;23.912;2022-10-16T12:58:50;35.47;;;23.73;;
40152;SDS011;26371;56.992;23.912;2022-10-16T13:01:40;34.85;;;23.50;;
40152;SDS011;26371;56.992;23.912;2022-10-16T13:04:24;33.65;;;22.83;;
40152;SDS011;26371;56.992;23.912;2022-10-16T13:07:09;34.90;;;23.27;;
40152;SDS011;26371;56.992;23.912;2022-10-16T13:10:02;35.40;;;23.17;;
40152;SDS011;26371;56.992;23.912;2022-10-16T13:12:46;35.22;;;22.08;;
40152;SDS011;26371;56.992;23.912;2022-10-16T13:15:29;35.78;;;22.90;;
40152;SDS011;26371;56.992;23.912;2022-10-16T13:18:11;35.30;;;22.83;;
40152;SDS011;26371;56.992;23.912;2022-10-16T13:20:51;35.53;;;22.83;;
40152;SDS011;26371;56.992;23.912;2022-10-16T13:23:30;33.08;;;21.67;;
40152;SDS011;26371;56.992;23.912;2022-10-16T13:26:09;33.70;;;23.05;;
40152;SDS011;26371;56.992;23.912;2022-10-16T13:28:48;34.67;;;23.15;;
40152;SDS011;26371;56.992;23.912;2022-10-16T13:31:18;36.58;;;23.27;;
40152;SDS011;26371;56.992;23.912;2022-10-16T13:33:51;36.30;;;23.02;;
40152;SDS011;26371;56.992;23.912;2022-10-16T13:36:23;37.78;;;21.85;;
40152;SDS011;26371;56.992;23.912;2022-10-16T13:39:09;32.47;;;22.60;;
40152;SDS011;26371;56.992;23.912;2022-10-16T13:41:42;32.45;;;22.73;;
40152;SDS011;26371;56.992;23.912;2022-10-16T13:44:13;39.10;;;22.67;;
40152;SDS011;26371;56.992;23.912;2022-10-16T13:46:45;35.08;;;23.80;;
40152;SDS011;26371;56.992;23.912;2022-10-16T13:49:14;36.72;;;22.58;;
40152;SDS011;26371;56.992;23.912;2022-10-16T13:51:53;35.17;;;23.55;;
40152;SDS011;26371;56.992;23.912;2022-10-16T13:54:23;36.78;;;23.92;;
40152;SDS011;26371;56.992;23.912;2022-10-16T13:56:54;36.78;;;24.17;;
40152;SDS011;26371;56.992;23.912;2022-10-16T13:59:35;32.60;;;22.58;;
40152;SDS011;26371;56.992;23.912;2022-10-16T14:02:08;33.45;;;23.15;;
40152;SDS011;26371;56.992;23.912;2022-10-16T14:04:46;32.42;;;22.13;;
40152;SDS011;26371;56.992;23.912;2022-10-16T14:07:18;32.10;;;22.45;;
40152;SDS011;26371;56.992;23.912;2022-10-16T14:09:51;35.17;;;22.92;;
40152;SDS011;26371;56.992;23.912;2022-10-16T14:12:22;33.65;;;23.27;;
40152;SDS011;26371;56.992;23.912;2022-10-16T14:14:54;35.85;;;23.90;;
40152;SDS011;26371;56.992;23.912;2022-10-16T14:17:26;35.35;;;23.75;;
40152;SDS011;26371;56.992;23.912;2022-10-16T14:19:57;31.95;;;22.42;;
40152;SDS011;26371;56.992;23.912;2022-10-16T14:22:32;36.40;;;22.77;;
40152;SDS011;26371;56.992;23.912;2022-10-16T14:25:15;32.88;;;22.40;;
40152;SDS011;26371;56.992;23.912;2022-10-16T14:28:01;31.38;;;22.83;;
40152;SDS011;26371;56.992;23.912;2022-10-16T14:30:33;35.47;;;23.25;;
40152;SDS011;26371;56.992;23.912;2022-10-16T14:33:03;31.67;;;22.30;;
40152;SDS011;26371;56.992;23.912;2022-10-16T14:35:34;34.47;;;21.80;;
40152;SDS011;26371;56.992;23.912;2022-10-16T14:38:05;30.10;;;21.73;;
40152;SDS011;26371;56.992;23.912;2022-10-16T14:40:46;30.23;;;21.52;;
40152;SDS011;26371;56.992;23.912;2022-10-16T14:43:20;34.88;;;21.45;;
40152;SDS011;26371;56.992;23.912;2022-10-16T14:45:50;31.17;;;21.88;;
40152;SDS011;26371;56.992;23.912;2022-10-16T14:48:21;29.40;;;21.33;;
40152;SDS011;26371;56.992;23.912;2022-10-16T14:50:50;33.35;;;22.17;;
40152;SDS011;26371;56.992;23.912;2022-10-16T14:53:20;29.67;;;20.98;;
40152;SDS011;26371;56.992;23.912;2022-10-16T14:55:49;28.73;;;20.00;;
40152;SDS011;26371;56.992;23.912;2022-10-16T14:58:20;31.17;;;21.10;;
40152;SDS011;26371;56.992;23.912;2022-10-16T15:00:51;31.00;;;20.90;;
40152;SDS011;26371;56.992;23.912;2022-10-16T15:03:20;27.73;;;20.25;;
40152;SDS011;26371;56.992;23.912;2022-10-16T15:05:48;32.35;;;20.00;;
40152;SDS011;26371;56.992;23.912;2022-10-16T15:08:17;28.65;;;19.95;;
40152;SDS011;26371;56.992;23.912;2022-10-16T15:10:46;31.40;;;19.80;;